Time;durP1;ratioP1;P1;durP2;ratioP2;P2;SDS_P1;SDS_P2;PMS_P1;PMS_P2;Temp;Humidity;BMP_temperature;BMP_pressure;BME280_temperature;BME280_humidity;BME280_pressure;Samples;Min_cycle;Max_cycle;Signal;HPM_P1;HPM_P2
2021/09/30 00:00:19;;;;;;;10.75;6.00;;;;;;;10.82;83.33;101129.55;1619837;88;21610;-80
2021/09/30 00:02:47;;;;;;;10.23;6.12;;;;;;;10.81;83.34;101131.38;1619762;88;21535;-80
2021/09/30 00:05:13;;;;;;;13.25;5.60;;;;;;;10.82;83.39;101132.22;1619438;88;21316;-80
2021/09/30 00:07:39;;;;;;;8.15;5.53;;;;;;;10.83;83.40;101131.23;1621713;88;21011;-80
2021/09/30 00:10:07;;;;;;;7.20;4.42;;;;;;;10.84;83.39;101127.06;1654606;85;21141;-81
2021/09/30 00:12:39;;;;;;;10.57;5.80;;;;;;;10.85;83.40;101133.23;1654772;85;21415;-80
2021/09/30 00:15:10;;;;;;;8.75;5.42;;;;;;;10.86;83.42;101136.26;1654276;86;21069;-80
2021/09/30 00:34:33;;;;;;;6.67;4.00;;;;;;;10.88;83.50;101162.28;1666274;86;21038;-80
2021/09/30 00:46:54;;;;;;;4.65;3.27;;;;;;;10.88;83.50;101170.28;1645330;86;21077;-79
2021/09/30 00:52:12;;;;;;;5.87;3.33;;;;;;;10.89;83.50;101173.31;1654960;86;21073;-80
2021/09/30 01:40:17;;;;;;;3.37;1.50;;;;;;;11.00;83.20;101229.13;1541791;92;21086;-80
2021/09/30 01:52:01;;;;;;;2.52;1.52;;;;;;;10.92;82.96;101245.89;1652125;86;21045;-80
2021/09/30 02:28:13;;;;;;;4.58;1.80;;;;;;;10.69;82.00;101269.16;1653523;86;21010;-80
2021/09/30 03:00:14;;;;;;;4.75;1.42;;;;;;;10.32;80.97;101307.36;1662135;86;21949;-80
2021/09/30 03:02:42;;;;;;;4.40;1.42;;;;;;;10.29;80.94;101316.98;1661718;86;21019;-80
2021/09/30 03:05:11;;;;;;;4.72;2.10;;;;;;;10.26;80.93;101320.44;1673813;85;21077;-80
2021/09/30 03:07:37;;;;;;;4.25;2.02;;;;;;;10.23;80.89;101324.24;1650378;85;21515;-80
2021/09/30 03:10:04;;;;;;;5.40;1.45;;;;;;;10.20;80.86;101319.20;1649513;87;21058;-80
2021/09/30 03:12:30;;;;;;;2.10;1.30;;;;;;;10.17;80.84;101327.46;1682054;85;21082;-80
2021/09/30 03:15:06;;;;;;;3.87;2.00;;;;;;;10.16;80.84;101331.63;1680155;85;21022;-80
2021/09/30 03:17:32;;;;;;;8.38;2.17;;;;;;;10.14;80.81;101334.41;1653968;86;21043;-80
2021/09/30 03:20:05;;;;;;;3.85;2.20;;;;;;;10.14;80.81;101330.42;1612543;86;38937;-80
2021/09/30 03:22:28;;;;;;;4.72;2.83;;;;;;;10.14;80.78;101333.09;1660910;86;21068;-80
2021/09/30 03:24:54;;;;;;;2.83;1.80;;;;;;;10.12;80.78;101328.37;1661923;86;21519;-80
2021/09/30 03:27:20;;;;;;;4.12;2.83;;;;;;;10.11;80.77;101332.02;1657962;86;21010;-80
2021/09/30 03:29:46;;;;;;;4.28;1.50;;;;;;;10.10;80.75;101335.66;1624498;88;21052;-80
2021/09/30 03:32:12;;;;;;;1.92;1.22;;;;;;;10.08;80.74;101342.97;1651188;87;21375;-79
2021/09/30 03:34:38;;;;;;;2.83;1.30;;;;;;;10.07;80.71;101343.94;1624384;87;21146;-80
2021/09/30 03:37:04;;;;;;;3.10;1.05;;;;;;;10.05;80.68;101349.92;1641161;85;21519;-80
2021/09/30 03:39:30;;;;;;;2.08;1.10;;;;;;;10.04;80.67;101357.56;1678855;85;21549;-80
2021/09/30 03:41:58;;;;;;;3.15;1.55;;;;;;;10.02;80.61;101355.54;1679120;85;21094;-79
2021/09/30 03:44:24;;;;;;;3.47;1.30;;;;;;;9.97;80.59;101360.44;1676625;85;21589;-80
2021/09/30 03:46:53;;;;;;;2.40;1.07;;;;;;;9.92;80.56;101360.86;1677150;85;21598;-80
2021/09/30 03:49:32;;;;;;;2.85;1.10;;;;;;;9.89;80.53;101365.63;1656943;85;21978;-80
2021/09/30 03:54:40;;;;;;;2.35;1.02;;;;;;;9.79;80.45;101376.30;1650132;87;21131;-79
2021/09/30 03:57:06;;;;;;;3.47;1.92;;;;;;;9.74;80.41;101376.39;1650024;85;21518;-79
2021/09/30 03:59:30;;;;;;;4.87;3.62;;;;;;;9.69;80.40;101378.62;1649562;87;21139;-80
2021/09/30 04:01:57;;;;;;;7.90;6.08;;;;;;;9.64;80.40;101374.22;1661432;86;22057;-80
2021/09/30 04:04:29;;;;;;;5.03;4.37;;;;;;;9.54;80.37;101377.70;1661568;86;21023;-80
2021/09/30 04:06:56;;;;;;;3.85;2.15;;;;;;;9.49;80.36;101389.77;1660412;86;21011;-80
2021/09/30 04:09:26;;;;;;;5.25;1.80;;;;;;;9.44;80.34;101383.52;1651060;86;21547;-80
2021/09/30 04:11:50;;;;;;;3.77;2.40;;;;;;;9.41;80.32;101386.45;1613021;87;21079;-80
2021/09/30 04:14:16;;;;;;;9.03;6.50;;;;;;;9.37;80.29;101374.88;1668336;86;21196;-80
2021/09/30 04:16:47;;;;;;;8.63;4.90;;;;;;;9.36;80.27;101382.02;1668687;86;21055;-80
2021/09/30 04:19:12;;;;;;;5.85;1.20;;;;;;;9.31;80.26;101392.26;1649817;86;21043;-80
2021/09/30 04:21:38;;;;;;;3.72;1.65;;;;;;;9.27;80.25;101392.66;1660197;86;21027;-80
2021/09/30 04:24:04;;;;;;;5.80;1.60;;;;;;;9.25;80.22;101391.97;1660657;86;20916;-80
2021/09/30 04:26:30;;;;;;;4.40;1.52;;;;;;;9.20;80.21;101392.85;1660564;86;22258;-80
2021/09/30 04:28:56;;;;;;;4.58;1.47;;;;;;;9.15;80.21;101390.59;1658106;86;21027;-79
2021/09/30 04:31:23;;;;;;;5.15;1.57;;;;;;;9.11;80.20;101399.01;1660159;86;21015;-80
2021/09/30 04:33:51;;;;;;;4.42;1.10;;;;;;;9.07;80.18;101402.42;1652893;86;21075;-81
2021/09/30 04:36:17;;;;;;;4.62;1.70;;;;;;;9.05;80.17;101405.69;1652653;86;21028;-79
2021/09/30 04:38:45;;;;;;;4.83;1.17;;;;;;;9.02;80.15;101408.62;1660354;86;21090;-79
2021/09/30 04:41:12;;;;;;;4.05;1.52;;;;;;;8.99;80.14;101407.09;1660440;86;21055;-79
2021/09/30 04:43:39;;;;;;;3.33;1.40;;;;;;;8.97;80.13;101408.21;1660587;86;21087;-79
2021/09/30 04:46:05;;;;;;;2.45;1.10;;;;;;;8.94;80.12;101409.78;1660292;86;21027;-79
2021/09/30 04:48:31;;;;;;;4.65;1.37;;;;;;;8.90;80.12;101409.20;1656235;86;21053;-78
2021/09/30 04:50:57;;;;;;;7.30;1.60;;;;;;;8.88;80.11;101401.02;1650536;87;21507;-79
2021/09/30 04:53:23;;;;;;;6.05;1.62;;;;;;;8.86;80.11;101408.30;1650180;87;21042;-78
2021/09/30 04:55:49;;;;;;;5.72;1.80;;;;;;;8.83;80.11;101411.23;1650351;87;21057;-79
2021/09/30 04:58:15;;;;;;;8.38;2.27;;;;;;;8.79;80.07;101405.34;1649177;86;21035;-79
2021/09/30 05:00:41;;;;;;;4.95;1.70;;;;;;;8.79;80.08;101411.14;1647667;86;21078;-78
2021/09/30 05:03:07;;;;;;;5.70;1.37;;;;;;;8.77;80.09;101421.91;1647825;87;21172;-78
2021/09/30 05:05:33;;;;;;;4.80;1.60;;;;;;;8.76;80.10;101422.87;1651069;86;20999;-79
2021/09/30 05:07:59;;;;;;;2.55;1.10;;;;;;;8.76;80.07;101423.38;1650897;86;21502;-78
2021/09/30 05:10:32;;;;;;;5.30;1.50;;;;;;;8.77;80.07;101431.69;1650125;86;21030;-78
2021/09/30 05:12:55;;;;;;;2.62;1.50;;;;;;;8.75;80.07;101427.01;1649528;87;21053;-79
2021/09/30 05:15:21;;;;;;;5.92;1.90;;;;;;;8.75;80.08;101428.34;1655510;86;21179;-79
2021/09/30 05:17:47;;;;;;;6.67;1.90;;;;;;;8.74;80.06;101431.96;1659923;86;20955;-79
2021/09/30 05:20:13;;;;;;;2.67;1.62;;;;;;;8.74;80.05;101433.30;1660641;86;21018;-79
2021/09/30 05:22:39;;;;;;;4.28;1.57;;;;;;;8.71;80.06;101437.55;1657941;86;21062;-79
2021/09/30 05:25:05;;;;;;;3.47;1.30;;;;;;;8.71;80.02;101436.22;1660471;86;20948;-78
2021/09/30 05:27:31;;;;;;;3.45;1.15;;;;;;;8.70;80.06;101432.72;1655923;86;22075;-79
2021/09/30 05:29:57;;;;;;;13.43;1.75;;;;;;;8.72;80.08;101433.92;1650207;87;21022;-79
2021/09/30 05:32:23;;;;;;;5.58;1.50;;;;;;;8.73;80.04;101430.27;1650239;87;21077;-79
2021/09/30 05:34:49;;;;;;;3.45;2.10;;;;;;;8.76;80.02;101428.19;1652267;86;20943;-79
2021/09/30 05:37:15;;;;;;;5.62;2.15;;;;;;;8.79;80.02;101439.07;1653667;86;21037;-78
2021/09/30 05:39:41;;;;;;;2.20;1.45;;;;;;;8.80;80.00;101436.74;1650316;87;21197;-79
2021/09/30 05:42:08;;;;;;;6.60;1.60;;;;;;;8.81;79.99;101435.30;1650169;87;21046;-79
2021/09/30 05:44:34;;;;;;;4.80;1.62;;;;;;;9.22;80.17;101442.30;1650010;87;21058;-79
2021/09/30 05:47:00;;;;;;;12.07;2.35;;;;;;;9.92;80.04;101441.31;1656889;86;21016;-78
2021/09/30 05:49:26;;;;;;;5.08;1.70;;;;;;;9.82;79.53;101444.44;1656411;86;21079;-79
2021/09/30 05:51:53;;;;;;;4.58;1.72;;;;;;;9.85;79.24;101442.85;1660701;85;21580;-79
2021/09/30 05:54:19;;;;;;;5.62;1.87;;;;;;;9.94;79.13;101448.66;1679821;84;21475;-79
2021/09/30 05:56:45;;;;;;;14.20;2.08;;;;;;;10.06;79.18;101448.89;1634087;87;21030;-79
2021/09/30 05:59:11;;;;;;;2.42;1.37;;;;;;;10.21;79.15;101454.15;1647276;86;21027;-79
2021/09/30 06:12:35;;;;;;;3.67;0.88;;;;;;;11.08;79.16;101462.80;1650835;86;21052;-80
2021/09/30 06:14:55;;;;;;;2.00;0.98;;;;;;;11.26;79.02;101467.67;1624082;87;21038;-79
2021/09/30 06:17:21;;;;;;;4.53;1.35;;;;;;;11.39;78.95;101473.53;1625127;88;21200;-79
2021/09/30 06:19:47;;;;;;;4.92;1.32;;;;;;;11.55;78.77;101486.22;1636848;86;21507;-80
2021/09/30 06:22:13;;;;;;;1.32;0.88;;;;;;;11.64;78.63;101485.34;1655278;85;21510;-80
2021/09/30 06:24:40;;;;;;;6.35;1.52;;;;;;;11.70;78.54;101489.22;1652749;85;21094;-80
2021/09/30 06:27:06;;;;;;;3.83;0.90;;;;;;;11.86;78.38;101489.41;1650856;86;21034;-80
2021/09/30 06:29:32;;;;;;;2.75;1.05;;;;;;;11.93;78.16;101482.47;1668348;85;21081;-80
2021/09/30 06:31:58;;;;;;;3.80;1.32;;;;;;;12.04;77.99;101488.93;1651686;85;21044;-80
2021/09/30 06:34:24;;;;;;;3.60;1.37;;;;;;;12.06;77.79;101484.30;1644635;86;21045;-79
2021/09/30 06:36:51;;;;;;;4.92;1.20;;;;;;;12.17;77.68;101488.08;1662237;85;21492;-81
2021/09/30 06:39:17;;;;;;;1.47;1.37;;;;;;;12.22;77.35;101490.27;1663620;85;21113;-80
2021/09/30 06:41:43;;;;;;;6.72;1.40;;;;;;;12.32;77.13;101491.02;1625709;87;21176;-81
2021/09/30 06:44:09;;;;;;;6.25;1.70;;;;;;;12.33;76.87;101496.72;1654777;85;21019;-81
2021/09/30 06:46:35;;;;;;;4.65;1.60;;;;;;;12.42;76.68;101492.61;1660233;85;21151;-81
2021/09/30 06:49:01;;;;;;;5.28;1.45;;;;;;;12.49;76.48;101499.02;1622801;88;21034;-82
2021/09/30 06:51:27;;;;;;;4.50;1.05;;;;;;;12.50;76.27;101498.04;1658534;85;21118;-80
2021/09/30 06:53:53;;;;;;;5.47;1.95;;;;;;;12.58;76.02;101496.42;1658857;85;21138;-80
2021/09/30 06:56:20;;;;;;;4.62;1.57;;;;;;;12.72;75.85;101502.55;1630183;87;21496;-81
2021/09/30 06:58:47;;;;;;;6.42;1.15;;;;;;;12.79;75.67;101500.92;1656007;85;21371;-81
2021/09/30 07:01:15;;;;;;;3.70;1.67;;;;;;;12.83;75.45;101506.31;1672985;85;21114;-81
2021/09/30 07:03:41;;;;;;;3.83;1.62;;;;;;;12.89;75.24;101502.50;1663263;85;21102;-80
2021/09/30 07:06:07;;;;;;;7.28;1.25;;;;;;;12.92;74.98;101506.69;1664504;85;21254;-81
2021/09/30 07:08:33;;;;;;;7.92;1.37;;;;;;;12.92;74.70;101508.02;1627966;87;21117;-81
2021/09/30 07:10:59;;;;;;;3.92;1.35;;;;;;;12.99;74.53;101502.38;1653479;85;21057;-80
2021/09/30 07:13:25;;;;;;;3.72;1.12;;;;;;;12.89;74.16;101502.98;1647273;87;21060;-81
2021/09/30 07:15:52;;;;;;;4.62;1.50;;;;;;;12.86;73.89;101514.02;1647735;87;21534;-81
2021/09/30 07:18:19;;;;;;;5.70;1.32;;;;;;;12.79;73.64;101515.64;1652015;86;21164;-80
2021/09/30 07:20:50;;;;;;;5.10;1.80;;;;;;;12.85;73.52;101515.01;1652021;85;21031;-81
2021/09/30 07:23:16;;;;;;;6.25;2.00;;;;;;;12.96;73.31;101516.09;1657890;85;21026;-80
2021/09/30 07:25:42;;;;;;;3.25;1.02;;;;;;;12.95;73.04;101519.27;1654041;86;21074;-81
2021/09/30 07:28:08;;;;;;;2.72;1.55;;;;;;;12.98;72.85;101522.14;1652977;86;21088;-81
2021/09/30 07:30:34;;;;;;;3.65;1.50;;;;;;;12.98;72.58;101524.82;1626780;87;21173;-81
2021/09/30 07:33:01;;;;;;;5.17;1.30;;;;;;;12.93;72.34;101539.17;1652409;86;21058;-81
2021/09/30 07:35:27;;;;;;;7.25;1.37;;;;;;;13.01;72.18;101533.88;1630601;86;21549;-81
2021/09/30 07:37:54;;;;;;;3.87;1.32;;;;;;;13.03;71.95;101529.19;1647950;86;21097;-81
2021/09/30 07:40:21;;;;;;;3.62;1.32;;;;;;;13.07;71.73;101531.89;1653085;86;21067;-81
2021/09/30 07:42:47;;;;;;;3.42;1.30;;;;;;;13.14;71.59;101538.33;1659558;85;21179;-81
2021/09/30 07:45:13;;;;;;;3.87;1.17;;;;;;;13.18;71.42;101535.67;1622364;87;21534;-81
2021/09/30 07:47:39;;;;;;;2.55;1.27;;;;;;;13.22;71.24;101536.20;1627333;87;21131;-81
2021/09/30 07:50:05;;;;;;;3.17;1.00;;;;;;;13.24;71.14;101540.39;1656751;85;21098;-81
2021/09/30 07:52:32;;;;;;;3.95;1.20;;;;;;;13.27;70.98;101533.38;1647510;86;21629;-79
2021/09/30 07:55:00;;;;;;;8.05;1.57;;;;;;;13.25;70.71;101535.88;1646299;85;22029;-79
2021/09/30 07:57:29;;;;;;;5.53;2.72;;;;;;;13.27;70.61;101537.39;1646583;86;21034;-78
2021/09/30 07:59:56;;;;;;;3.27;1.20;;;;;;;13.31;70.45;101544.11;1646698;85;21042;-80
2021/09/30 08:02:22;;;;;;;6.15;1.40;;;;;;;13.35;70.30;101548.16;1623653;87;21061;-80
2021/09/30 08:04:48;;;;;;;5.92;1.30;;;;;;;13.39;70.18;101538.80;1654231;86;21069;-79
2021/09/30 08:07:14;;;;;;;4.62;1.37;;;;;;;13.42;70.00;101547.86;1649496;86;21173;-79
2021/09/30 08:09:40;;;;;;;4.80;1.00;;;;;;;13.57;69.93;101545.91;1656225;85;21107;-80
2021/09/30 08:12:07;;;;;;;6.45;2.00;;;;;;;13.66;69.80;101547.61;1647081;86;21523;-79
2021/09/30 08:14:34;;;;;;;4.42;1.00;;;;;;;13.62;69.56;101543.57;1639901;87;21535;-80
2021/09/30 08:17:00;;;;;;;4.05;1.10;;;;;;;13.67;69.47;101547.47;1645068;86;21591;-80
2021/09/30 08:19:26;;;;;;;3.85;1.55;;;;;;;13.63;69.21;101551.96;1635683;86;21836;-80
2021/09/30 08:21:52;;;;;;;8.15;2.52;;;;;;;13.60;69.04;101552.28;1639197;87;21043;-80
2021/09/30 08:24:18;;;;;;;4.12;1.47;;;;;;;13.68;68.92;101555.86;1614829;87;21067;-80
2021/09/30 08:26:45;;;;;;;7.40;1.65;;;;;;;13.70;68.73;101556.52;1633624;86;21097;-79
2021/09/30 08:29:15;;;;;;;5.35;2.70;;;;;;;13.75;68.58;101552.02;1639832;85;21077;-80
2021/09/30 08:31:41;;;;;;;4.35;1.05;;;;;;;13.74;68.35;101553.02;1633607;86;21659;-80
2021/09/30 08:34:07;;;;;;;8.30;1.90;;;;;;;13.71;68.22;101559.55;1614216;87;21563;-79
2021/09/30 08:36:33;;;;;;;5.05;2.20;;;;;;;13.79;68.14;101560.08;1635526;86;21607;-80
2021/09/30 08:38:59;;;;;;;13.25;4.12;;;;;;;13.89;68.06;101564.80;1632332;86;21042;-80
2021/09/30 08:41:25;;;;;;;6.00;1.70;;;;;;;13.97;68.01;101562.13;1642819;85;21029;-80
2021/09/30 08:43:52;;;;;;;5.65;2.05;;;;;;;14.03;67.88;101564.17;1629160;86;21094;-80
2021/09/30 08:46:18;;;;;;;6.42;1.90;;;;;;;14.00;67.62;101567.19;1638283;85;21104;-80
2021/09/30 08:48:45;;;;;;;8.78;1.98;;;;;;;13.99;67.55;101566.84;1631737;86;21131;-80
2021/09/30 08:51:13;;;;;;;4.42;1.67;;;;;;;13.99;67.28;101576.23;1629188;86;21090;-80
2021/09/30 08:53:39;;;;;;;6.85;1.77;;;;;;;14.00;67.13;101579.27;1642859;86;21089;-80
2021/09/30 08:56:07;;;;;;;11.73;1.62;;;;;;;14.02;66.97;101578.59;1634640;86;21126;-80
2021/09/30 08:58:33;;;;;;;3.45;1.22;;;;;;;13.95;66.72;101577.55;1640654;86;21047;-81
2021/09/30 09:01:00;;;;;;;5.87;1.30;;;;;;;13.89;66.44;101574.20;1631867;86;21117;-80
2021/09/30 09:03:41;;;;;;;5.28;1.70;;;;;;;13.87;66.30;101584.22;1640179;86;21053;-78
2021/09/30 09:06:09;;;;;;;4.37;1.22;;;;;;;13.91;66.16;101578.87;1637380;86;21554;-79
2021/09/30 09:08:36;;;;;;;6.15;1.82;;;;;;;13.95;66.07;101573.03;1636288;87;21112;-79
2021/09/30 09:11:04;;;;;;;7.10;3.10;;;;;;;14.08;66.05;101579.27;1637135;87;21048;-78
2021/09/30 09:13:31;;;;;;;4.53;2.45;;;;;;;14.15;65.96;101576.27;1645695;85;21078;-79
2021/09/30 09:15:59;;;;;;;3.72;1.50;;;;;;;14.17;65.85;101574.27;1647371;85;21080;-80
2021/09/30 09:18:30;;;;;;;4.50;1.15;;;;;;;14.26;65.82;101574.61;1660707;85;21065;-80
2021/09/30 09:21:22;;;;;;;7.53;2.65;;;;;;;14.33;65.73;101569.42;1651056;86;21254;-79
2021/09/30 09:23:58;;;;;;;7.03;2.00;;;;;;;14.44;65.67;101571.32;1648335;86;21073;-79
2021/09/30 09:26:34;;;;;;;6.10;2.02;;;;;;;14.46;65.55;101545.14;1632038;86;21059;-80
2021/09/30 09:29:14;;;;;;;10.40;1.82;;;;;;;14.46;65.55;101545.14;1623817;87;21062;-80
2021/09/30 09:31:47;;;;;;;6.15;1.22;;;;;;;14.54;65.26;101566.28;1654691;85;21132;-79
2021/09/30 09:34:39;;;;;;;5.53;1.10;;;;;;;14.62;65.11;101567.64;1655116;85;21077;-80
2021/09/30 09:37:37;;;;;;;9.18;1.82;;;;;;;14.47;64.64;101568.30;1627330;87;21135;-79
2021/09/30 09:39:57;;;;;;;4.75;0.88;;;;;;;14.28;64.26;101573.97;1652599;85;21112;-79
2021/09/30 09:42:30;;;;;;;6.58;0.80;;;;;;;14.21;64.34;101555.50;1652476;85;21010;-79
2021/09/30 09:45:04;;;;;;;5.92;1.45;;;;;;;14.21;64.34;101555.50;1654566;85;21073;-79
2021/09/30 09:47:35;;;;;;;4.53;1.70;;;;;;;14.37;64.27;101567.62;1633290;87;21298;-80
2021/09/30 09:50:22;;;;;;;7.60;2.00;;;;;;;14.42;64.15;101569.32;1633678;87;21518;-80
2021/09/30 09:52:59;;;;;;;6.95;1.47;;;;;;;14.54;64.13;101574.34;1657911;85;21057;-80
2021/09/30 09:55:34;;;;;;;4.87;1.02;;;;;;;14.78;63.83;101570.31;1654949;85;21495;-80
2021/09/30 09:58:12;;;;;;;4.42;1.05;;;;;;;14.74;63.73;101571.68;1673777;85;21082;-80
2021/09/30 10:00:53;;;;;;;7.75;1.47;;;;;;;14.74;63.73;101571.68;1650979;85;22068;-80
2021/09/30 10:03:27;;;;;;;5.25;2.10;;;;;;;14.67;63.33;101565.30;1586841;88;21050;-80
2021/09/30 10:05:55;;;;;;;5.28;1.30;;;;;;;14.75;63.22;101567.97;1619162;87;21113;-79
2021/09/30 10:08:21;;;;;;;5.25;1.40;;;;;;;14.98;62.96;101573.00;1635862;87;21474;-79
2021/09/30 10:10:49;;;;;;;7.83;1.42;;;;;;;14.98;62.96;101573.00;1637381;87;21084;-80
2021/09/30 10:13:16;;;;;;;5.55;1.32;;;;;;;15.20;63.06;101580.33;1630501;86;21066;-80
2021/09/30 10:15:42;;;;;;;3.83;1.10;;;;;;;15.23;62.85;101581.36;1646512;87;21098;-80
2021/09/30 10:18:10;;;;;;;5.40;1.27;;;;;;;15.06;62.72;101581.03;1655505;85;21527;-79
2021/09/30 10:20:38;;;;;;;5.58;1.17;;;;;;;14.98;62.80;101585.09;1654240;85;21206;-80
2021/09/30 10:23:06;;;;;;;3.72;1.05;;;;;;;14.92;62.76;101583.06;1619798;87;21690;-78
2021/09/30 10:25:35;;;;;;;3.87;1.00;;;;;;;14.88;62.73;101579.88;1637655;86;21168;-79
2021/09/30 10:28:02;;;;;;;6.03;1.37;;;;;;;15.13;62.76;101585.25;1630978;87;21125;-79
2021/09/30 10:30:41;;;;;;;4.78;1.15;;;;;;;15.35;62.59;101583.16;1626815;87;21095;-79
2021/09/30 10:33:14;;;;;;;6.97;1.45;;;;;;;15.52;62.41;101584.82;1656084;85;21083;-80
2021/09/30 10:35:43;;;;;;;3.80;1.30;;;;;;;15.58;62.15;101588.19;1630066;88;21075;-79
2021/09/30 10:38:28;;;;;;;4.40;1.00;;;;;;;15.56;62.00;101597.41;1631112;87;21161;-80
2021/09/30 10:43:47;;;;;;;6.07;1.60;;;;;;;15.38;61.70;101590.38;1834987;75;28205;-80
2021/09/30 10:46:26;;;;;;;11.03;3.77;;;;;;;15.44;61.46;101591.56;1823929;78;21548;-80
2021/09/30 10:48:53;;;;;;;8.48;2.77;;;;;;;15.59;61.43;101589.84;1811320;78;21247;-80
2021/09/30 10:51:19;;;;;;;4.60;1.70;;;;;;;15.81;61.29;101589.59;1819081;78;20978;-80
2021/09/30 10:53:52;;;;;;;5.10;1.40;;;;;;;15.73;60.88;101590.96;1819833;78;20956;-80
2021/09/30 10:56:41;;;;;;;3.40;1.02;;;;;;;15.51;60.73;101586.36;1819190;78;21507;-79
2021/09/30 10:59:15;;;;;;;5.40;1.47;;;;;;;15.60;60.72;101593.37;1807076;77;21035;-80
2021/09/30 11:01:56;;;;;;;6.65;1.22;;;;;;;15.59;60.51;101586.30;1823234;78;21460;-80
2021/09/30 11:04:22;;;;;;;5.05;1.65;;;;;;;15.65;60.48;101588.33;1795472;78;20986;-80
2021/09/30 11:07:18;;;;;;;9.23;1.92;;;;;;;15.76;60.40;101596.83;1781034;78;21490;-80
2021/09/30 11:09:42;;;;;;;4.67;1.30;;;;;;;15.94;60.30;101600.13;1784041;79;21002;-80
2021/09/30 11:12:11;;;;;;;6.33;1.65;;;;;;;15.86;59.96;101596.64;1761294;80;21074;-80
2021/09/30 11:14:53;;;;;;;3.93;1.17;;;;;;;15.92;59.87;101597.28;1762175;80;21139;-80
2021/09/30 11:17:40;;;;;;;8.50;1.60;;;;;;;15.85;59.63;101601.69;1789042;79;21050;-79
2021/09/30 11:20:32;;;;;;;10.20;1.80;;;;;;;15.70;59.50;101596.70;1789230;79;21274;-79
2021/09/30 11:22:58;;;;;;;3.37;1.00;;;;;;;15.77;59.40;101603.05;1788436;79;21562;-79
2021/09/30 11:26:06;;;;;;;4.20;1.27;;;;;;;15.78;58.92;101593.98;1789652;80;21696;-79
2021/09/30 11:28:32;;;;;;;7.97;1.65;;;;;;;15.84;58.54;101600.00;1722587;80;21287;-79
2021/09/30 11:31:25;;;;;;;5.53;1.50;;;;;;;15.71;57.98;101595.69;1789406;79;20987;-80
2021/09/30 11:33:56;;;;;;;3.72;0.90;;;;;;;15.53;57.93;101593.73;1766499;80;21089;-79
2021/09/30 11:36:32;;;;;;;10.38;3.20;;;;;;;15.25;57.92;101594.61;1763759;80;21068;-79
2021/09/30 11:38:58;;;;;;;7.37;2.55;;;;;;;15.12;58.02;101597.84;1720933;83;21147;-79
2021/09/30 11:41:30;;;;;;;8.75;1.20;;;;;;;15.00;58.08;101594.65;1740539;82;21165;-79
2021/09/30 11:43:56;;;;;;;4.90;1.07;;;;;;;15.06;58.22;101594.46;1723519;82;21062;-77
2021/09/30 11:46:28;;;;;;;4.28;1.52;;;;;;;15.19;58.25;101600.17;1721156;83;21049;-79
2021/09/30 11:49:09;;;;;;;1.98;0.95;;;;;;;15.35;58.25;101598.79;1718706;83;21029;-79
2021/09/30 11:51:46;;;;;;;7.42;1.20;;;;;;;15.57;58.03;101593.72;1719138;81;21121;-78
2021/09/30 11:54:19;;;;;;;3.20;0.70;;;;;;;15.74;57.45;101590.80;1731413;81;21885;-79
2021/09/30 11:56:47;;;;;;;10.58;2.45;;;;;;;15.77;56.25;101601.70;1723544;83;21558;-79
2021/09/30 11:59:16;;;;;;;3.52;1.22;;;;;;;15.82;55.76;101604.73;1733839;81;21035;-79
2021/09/30 12:01:45;;;;;;;6.45;0.95;;;;;;;15.90;55.50;101603.36;1724016;81;21093;-79
2021/09/30 12:04:13;;;;;;;4.28;0.80;;;;;;;15.98;55.38;101601.95;1732002;81;21062;-79
2021/09/30 12:06:44;;;;;;;2.17;0.70;;;;;;;16.09;55.23;101600.22;1702467;83;21120;-79
2021/09/30 12:09:12;;;;;;;6.08;0.98;;;;;;;16.14;55.01;101600.54;1714759;83;21054;-79
2021/09/30 12:11:40;;;;;;;3.65;1.07;;;;;;;16.15;54.85;101599.50;1715598;83;21027;-79
2021/09/30 12:14:08;;;;;;;4.30;0.90;;;;;;;16.19;54.76;101602.68;1722830;83;21078;-79
2021/09/30 12:16:34;;;;;;;5.00;1.00;;;;;;;16.30;54.73;101599.09;1723697;83;21561;-79
2021/09/30 12:19:02;;;;;;;4.05;0.60;;;;;;;16.39;54.57;101600.73;1698452;83;22180;-79
2021/09/30 12:21:39;;;;;;;2.22;1.00;;;;;;;16.40;54.31;101597.00;1723513;83;21090;-79
2021/09/30 12:24:06;;;;;;;6.35;0.85;;;;;;;16.43;54.14;101599.33;1723897;83;21038;-79
2021/09/30 12:26:32;;;;;;;4.70;0.90;;;;;;;16.49;53.93;101588.37;1723557;83;21129;-79
2021/09/30 12:28:59;;;;;;;6.20;0.78;;;;;;;16.49;53.79;101604.53;1739291;81;21109;-79
2021/09/30 12:31:25;;;;;;;4.22;0.70;;;;;;;16.32;53.46;101594.88;1719632;83;21112;-80
2021/09/30 12:33:51;;;;;;;3.02;1.02;;;;;;;16.16;53.33;101605.73;1740742;81;21045;-79
2021/09/30 12:36:17;;;;;;;3.90;1.37;;;;;;;15.96;53.22;101608.03;1715368;83;21017;-80
2021/09/30 12:39:01;;;;;;;4.62;1.32;;;;;;;15.91;53.17;101605.02;1715364;83;21070;-79
2021/09/30 12:41:27;;;;;;;2.90;1.60;;;;;;;15.85;53.04;101603.88;1712013;83;21045;-79
2021/09/30 12:43:53;;;;;;;3.02;0.78;;;;;;;15.78;52.99;101612.81;1749648;81;21142;-79
2021/09/30 12:46:20;;;;;;;3.40;0.68;;;;;;;15.61;52.90;101605.81;1755068;81;21079;-79
2021/09/30 12:48:51;;;;;;;2.22;0.50;;;;;;;15.44;52.78;101613.91;1727742;81;21520;-79
2021/09/30 12:51:17;;;;;;;5.20;1.17;;;;;;;15.34;52.82;101602.48;1741363;82;21057;-79
2021/09/30 12:53:49;;;;;;;4.85;0.88;;;;;;;15.28;52.87;101604.52;1757870;81;21013;-79
2021/09/30 12:56:18;;;;;;;2.10;0.80;;;;;;;15.36;53.04;101603.16;1760126;81;21084;-79
2021/09/30 12:58:46;;;;;;;8.20;1.70;;;;;;;15.56;53.02;101596.07;1727382;81;21029;-79
2021/09/30 13:01:35;;;;;;;5.05;1.55;;;;;;;15.69;52.93;101598.54;1717373;82;21010;-79
2021/09/30 13:04:21;;;;;;;2.65;0.95;;;;;;;15.66;52.75;101597.55;1766727;80;21083;-79
2021/09/30 13:06:59;;;;;;;3.50;1.17;;;;;;;15.72;52.75;101597.38;1766070;80;20985;-80
2021/09/30 13:09:35;;;;;;;5.03;1.20;;;;;;;15.81;52.74;101598.50;1749672;81;21198;-79
2021/09/30 13:12:06;;;;;;;5.20;0.88;;;;;;;15.74;52.65;101595.34;1751860;81;21110;-79
2021/09/30 13:14:38;;;;;;;4.17;1.32;;;;;;;15.66;52.39;101588.63;1741228;82;21016;-79
2021/09/30 13:17:16;;;;;;;3.40;0.90;;;;;;;15.62;52.40;101591.37;1741458;82;21598;-79
2021/09/30 13:19:55;;;;;;;7.95;1.95;;;;;;;15.59;52.34;101594.38;1741758;82;21051;-79
2021/09/30 13:22:41;;;;;;;2.98;1.20;;;;;;;15.47;52.16;101592.05;1742611;82;21176;-79
2021/09/30 13:25:16;;;;;;;2.87;0.80;;;;;;;15.43;52.08;101589.37;1742735;81;21026;-79
2021/09/30 13:27:43;;;;;;;2.75;0.62;;;;;;;15.51;52.01;101591.73;1742206;81;21026;-79
2021/09/30 13:30:13;;;;;;;3.35;0.90;;;;;;;15.65;51.97;101588.33;1742155;82;21045;-80
2021/09/30 13:32:40;;;;;;;3.27;0.60;;;;;;;15.75;51.79;101591.64;1741786;82;21013;-80
2021/09/30 13:35:07;;;;;;;6.90;1.15;;;;;;;15.81;51.80;101593.63;1752926;81;21625;-80
2021/09/30 13:37:33;;;;;;;1.87;0.80;;;;;;;15.85;51.66;101589.58;1740974;80;21022;-79
2021/09/30 13:40:02;;;;;;;3.87;1.00;;;;;;;15.85;51.51;101590.42;1744147;81;21061;-79
2021/09/30 13:42:31;;;;;;;2.55;1.17;;;;;;;15.80;51.39;101591.44;1742509;81;21534;-79
2021/09/30 13:44:57;;;;;;;5.92;0.90;;;;;;;15.84;51.36;101594.62;1742380;81;21044;-79
2021/09/30 13:47:25;;;;;;;5.20;1.30;;;;;;;15.83;51.30;101592.43;1739526;82;21158;-79
2021/09/30 13:49:51;;;;;;;4.45;1.40;;;;;;;15.81;51.25;101589.59;1749047;81;21477;-79
2021/09/30 13:52:18;;;;;;;1.77;0.60;;;;;;;15.83;51.29;101593.77;1739159;81;21093;-79
2021/09/30 13:54:44;;;;;;;5.65;1.75;;;;;;;15.83;51.26;101586.23;1746217;81;21004;-79
2021/09/30 13:57:10;;;;;;;7.35;1.45;;;;;;;15.68;51.14;101571.84;1739912;81;21090;-79
2021/09/30 13:59:37;;;;;;;6.12;1.12;;;;;;;15.80;51.21;101590.59;1741450;81;21101;-79
2021/09/30 14:02:04;;;;;;;2.98;0.68;;;;;;;15.73;51.18;101587.77;1755463;81;21523;-79
2021/09/30 14:04:30;;;;;;;1.72;0.80;;;;;;;15.60;51.20;101583.45;1743609;81;21057;-79
2021/09/30 14:06:58;;;;;;;5.08;0.93;;;;;;;15.56;51.31;101589.34;1738887;82;21696;-80
2021/09/30 14:09:24;;;;;;;3.42;1.22;;;;;;;15.49;51.39;101580.64;1738837;82;21672;-79
2021/09/30 14:11:52;;;;;;;6.72;1.10;;;;;;;15.37;51.41;101582.50;1739633;80;21561;-79
2021/09/30 14:14:19;;;;;;;6.95;1.57;;;;;;;15.23;51.52;101588.08;1740169;82;21013;-79
2021/09/30 14:16:49;;;;;;;7.95;1.20;;;;;;;15.12;51.64;101588.44;1740037;82;21004;-79
2021/09/30 14:19:13;;;;;;;6.58;1.60;;;;;;;15.01;51.75;101584.75;1754877;81;20988;-79